sensor_id;sensor_type;location;lat;lon;timestamp;P1;durP1;ratioP1;P2;durP2;ratioP2
14876;SDS011;69691;48.172;17.070;2023-05-10T00:00:26;14.98;;;4.70;;
14876;SDS011;69691;48.172;17.070;2023-05-10T00:02:52;7.95;;;4.45;;
14876;SDS011;69691;48.172;17.070;2023-05-10T00:05:18;6.10;;;3.88;;
14876;SDS011;69691;48.172;17.070;2023-05-10T00:07:44;9.80;;;4.60;;
14876;SDS011;69691;48.172;17.070;2023-05-10T00:10:10;5.20;;;4.65;;
14876;SDS011;69691;48.172;17.070;2023-05-10T00:12:37;5.43;;;4.18;;
14876;SDS011;69691;48.172;17.070;2023-05-10T00:15:03;5.78;;;4.88;;
14876;SDS011;69691;48.172;17.070;2023-05-10T00:17:29;7.95;;;4.72;;
14876;SDS011;69691;48.172;17.070;2023-05-10T00:19:55;5.97;;;4.50;;
14876;SDS011;69691;48.172;17.070;2023-05-10T00:22:21;6.45;;;4.63;;
14876;SDS011;69691;48.172;17.070;2023-05-10T00:24:47;6.63;;;4.65;;
14876;SDS011;69691;48.172;17.070;2023-05-10T00:27:13;6.25;;;4.05;;
14876;SDS011;69691;48.172;17.070;2023-05-10T00:29:38;6.47;;;4.53;;
14876;SDS011;69691;48.172;17.070;2023-05-10T00:32:04;7.35;;;4.85;;
14876;SDS011;69691;48.172;17.070;2023-05-10T00:34:31;5.32;;;4.80;;
14876;SDS011;69691;48.172;17.070;2023-05-10T00:36:57;6.05;;;4.57;;
14876;SDS011;69691;48.172;17.070;2023-05-10T00:39:22;5.15;;;4.25;;
14876;SDS011;69691;48.172;17.070;2023-05-10T00:41:48;9.32;;;4.05;;
14876;SDS011;69691;48.172;17.070;2023-05-10T00:44:15;4.97;;;4.28;;
14876;SDS011;69691;48.172;17.070;2023-05-10T00:46:41;9.63;;;4.53;;
14876;SDS011;69691;48.172;17.070;2023-05-10T00:49:07;6.45;;;5.05;;
14876;SDS011;69691;48.172;17.070;2023-05-10T00:51:33;5.13;;;4.55;;
14876;SDS011;69691;48.172;17.070;2023-05-10T00:53:59;5.55;;;5.05;;
14876;SDS011;69691;48.172;17.070;2023-05-10T00:56:25;5.18;;;4.55;;
14876;SDS011;69691;48.172;17.070;2023-05-10T00:58:51;6.68;;;4.45;;
14876;SDS011;69691;48.172;17.070;2023-05-10T01:01:17;9.48;;;4.60;;
14876;SDS011;69691;48.172;17.070;2023-05-10T01:03:44;5.35;;;4.85;;
14876;SDS011;69691;48.172;17.070;2023-05-10T01:06:12;12.45;;;4.57;;
14876;SDS011;69691;48.172;17.070;2023-05-10T01:08:38;6.38;;;5.22;;
14876;SDS011;69691;48.172;17.070;2023-05-10T01:11:04;6.70;;;4.65;;
14876;SDS011;69691;48.172;17.070;2023-05-10T01:13:34;5.63;;;4.90;;
14876;SDS011;69691;48.172;17.070;2023-05-10T01:16:03;5.80;;;4.47;;
14876;SDS011;69691;48.172;17.070;2023-05-10T01:18:32;9.82;;;4.93;;
14876;SDS011;69691;48.172;17.070;2023-05-10T01:21:06;6.77;;;4.93;;
14876;SDS011;69691;48.172;17.070;2023-05-10T01:24:09;8.48;;;4.53;;
14876;SDS011;69691;48.172;17.070;2023-05-10T01:27:25;7.03;;;5.20;;
14876;SDS011;69691;48.172;17.070;2023-05-10T01:30:28;5.53;;;4.97;;
14876;SDS011;69691;48.172;17.070;2023-05-10T01:33:41;8.00;;;4.60;;
14876;SDS011;69691;48.172;17.070;2023-05-10T01:36:19;11.20;;;4.88;;
14876;SDS011;69691;48.172;17.070;2023-05-10T01:44:29;6.18;;;4.22;;
14876;SDS011;69691;48.172;17.070;2023-05-10T01:49:39;6.93;;;4.85;;
14876;SDS011;69691;48.172;17.070;2023-05-10T01:52:10;8.88;;;6.18;;
14876;SDS011;69691;48.172;17.070;2023-05-10T01:54:41;15.23;;;5.07;;
14876;SDS011;69691;48.172;17.070;2023-05-10T01:57:14;6.03;;;5.30;;
14876;SDS011;69691;48.172;17.070;2023-05-10T01:59:45;8.10;;;5.00;;
14876;SDS011;69691;48.172;17.070;2023-05-10T02:02:15;10.85;;;5.70;;
14876;SDS011;69691;48.172;17.070;2023-05-10T02:04:45;10.10;;;4.93;;
14876;SDS011;69691;48.172;17.070;2023-05-10T02:07:13;6.45;;;5.82;;
14876;SDS011;69691;48.172;17.070;2023-05-10T02:09:40;7.85;;;5.50;;
14876;SDS011;69691;48.172;17.070;2023-05-10T02:12:09;11.05;;;5.90;;
14876;SDS011;69691;48.172;17.070;2023-05-10T02:14:38;6.45;;;5.60;;
14876;SDS011;69691;48.172;17.070;2023-05-10T02:17:06;6.93;;;5.47;;
14876;SDS011;69691;48.172;17.070;2023-05-10T02:19:34;9.63;;;5.53;;
14876;SDS011;69691;48.172;17.070;2023-05-10T02:22:03;7.40;;;5.68;;
14876;SDS011;69691;48.172;17.070;2023-05-10T02:24:32;12.35;;;6.68;;
14876;SDS011;69691;48.172;17.070;2023-05-10T02:26:59;9.80;;;6.32;;
14876;SDS011;69691;48.172;17.070;2023-05-10T02:29:28;8.27;;;6.00;;
14876;SDS011;69691;48.172;17.070;2023-05-10T02:31:55;9.55;;;6.13;;
14876;SDS011;69691;48.172;17.070;2023-05-10T02:34:23;14.13;;;6.75;;
14876;SDS011;69691;48.172;17.070;2023-05-10T02:36:52;8.55;;;6.03;;
14876;SDS011;69691;48.172;17.070;2023-05-10T02:39:19;8.40;;;5.90;;
14876;SDS011;69691;48.172;17.070;2023-05-10T02:41:47;10.02;;;6.38;;
14876;SDS011;69691;48.172;17.070;2023-05-10T02:44:17;10.07;;;6.97;;
14876;SDS011;69691;48.172;17.070;2023-05-10T02:46:45;10.48;;;7.00;;
14876;SDS011;69691;48.172;17.070;2023-05-10T02:49:12;9.10;;;7.50;;
14876;SDS011;69691;48.172;17.070;2023-05-10T02:51:40;7.50;;;6.50;;
14876;SDS011;69691;48.172;17.070;2023-05-10T02:54:12;9.75;;;7.05;;
14876;SDS011;69691;48.172;17.070;2023-05-10T02:56:47;10.43;;;7.50;;
14876;SDS011;69691;48.172;17.070;2023-05-10T02:59:16;10.80;;;7.10;;
14876;SDS011;69691;48.172;17.070;2023-05-10T03:01:42;12.15;;;6.97;;
14876;SDS011;69691;48.172;17.070;2023-05-10T03:04:08;12.02;;;7.45;;
14876;SDS011;69691;48.172;17.070;2023-05-10T03:06:34;13.10;;;7.38;;
14876;SDS011;69691;48.172;17.070;2023-05-10T03:09:02;11.50;;;8.35;;
14876;SDS011;69691;48.172;17.070;2023-05-10T03:14:42;9.68;;;7.57;;
14876;SDS011;69691;48.172;17.070;2023-05-10T03:17:36;12.38;;;8.50;;
14876;SDS011;69691;48.172;17.070;2023-05-10T03:20:31;11.57;;;7.93;;
14876;SDS011;69691;48.172;17.070;2023-05-10T03:23:05;8.75;;;7.35;;
14876;SDS011;69691;48.172;17.070;2023-05-10T03:25:37;17.98;;;8.07;;
14876;SDS011;69691;48.172;17.070;2023-05-10T03:28:05;12.57;;;7.82;;
14876;SDS011;69691;48.172;17.070;2023-05-10T03:30:33;8.93;;;7.60;;
14876;SDS011;69691;48.172;17.070;2023-05-10T03:33:04;10.73;;;7.82;;
14876;SDS011;69691;48.172;17.070;2023-05-10T03:35:32;10.73;;;8.02;;
14876;SDS011;69691;48.172;17.070;2023-05-10T03:37:58;12.25;;;8.35;;
14876;SDS011;69691;48.172;17.070;2023-05-10T03:40:25;12.88;;;8.95;;
14876;SDS011;69691;48.172;17.070;2023-05-10T03:42:54;12.65;;;8.25;;
14876;SDS011;69691;48.172;17.070;2023-05-10T03:45:20;14.75;;;8.52;;
14876;SDS011;69691;48.172;17.070;2023-05-10T03:47:46;11.77;;;9.50;;
14876;SDS011;69691;48.172;17.070;2023-05-10T03:50:12;9.82;;;7.80;;
14876;SDS011;69691;48.172;17.070;2023-05-10T03:52:38;11.98;;;9.32;;
14876;SDS011;69691;48.172;17.070;2023-05-10T03:55:06;17.75;;;9.25;;
14876;SDS011;69691;48.172;17.070;2023-05-10T03:57:33;11.82;;;8.93;;
14876;SDS011;69691;48.172;17.070;2023-05-10T03:59:59;11.88;;;8.77;;
14876;SDS011;69691;48.172;17.070;2023-05-10T04:02:25;14.43;;;9.07;;
14876;SDS011;69691;48.172;17.070;2023-05-10T04:04:52;13.77;;;8.95;;
14876;SDS011;69691;48.172;17.070;2023-05-10T04:07:18;14.80;;;9.52;;
14876;SDS011;69691;48.172;17.070;2023-05-10T04:09:44;17.08;;;9.30;;
14876;SDS011;69691;48.172;17.070;2023-05-10T04:12:10;15.60;;;10.02;;
14876;SDS011;69691;48.172;17.070;2023-05-10T04:14:36;11.10;;;9.55;;
14876;SDS011;69691;48.172;17.070;2023-05-10T04:17:02;14.63;;;9.77;;
14876;SDS011;69691;48.172;17.070;2023-05-10T04:19:30;12.27;;;9.50;;
14876;SDS011;69691;48.172;17.070;2023-05-10T04:21:57;10.77;;;9.48;;
14876;SDS011;69691;48.172;17.070;2023-05-10T04:24:23;10.82;;;9.65;;
14876;SDS011;69691;48.172;17.070;2023-05-10T04:26:49;10.98;;;9.38;;
14876;SDS011;69691;48.172;17.070;2023-05-10T04:29:15;15.63;;;9.00;;
14876;SDS011;69691;48.172;17.070;2023-05-10T04:31:41;13.13;;;10.07;;
14876;SDS011;69691;48.172;17.070;2023-05-10T04:34:07;13.20;;;9.73;;
14876;SDS011;69691;48.172;17.070;2023-05-10T04:36:33;12.27;;;11.02;;
14876;SDS011;69691;48.172;17.070;2023-05-10T04:39:01;13.15;;;10.00;;
14876;SDS011;69691;48.172;17.070;2023-05-10T04:41:28;27.30;;;10.55;;
14876;SDS011;69691;48.172;17.070;2023-05-10T04:43:54;11.45;;;9.20;;
14876;SDS011;69691;48.172;17.070;2023-05-10T04:46:20;12.77;;;9.40;;
14876;SDS011;69691;48.172;17.070;2023-05-10T04:48:46;11.80;;;9.75;;
14876;SDS011;69691;48.172;17.070;2023-05-10T04:51:12;13.38;;;9.63;;
14876;SDS011;69691;48.172;17.070;2023-05-10T04:53:37;12.88;;;10.00;;
14876;SDS011;69691;48.172;17.070;2023-05-10T04:56:03;13.45;;;9.70;;
14876;SDS011;69691;48.172;17.070;2023-05-10T04:58:30;11.07;;;9.32;;
14876;SDS011;69691;48.172;17.070;2023-05-10T05:00:56;14.38;;;10.10;;
14876;SDS011;69691;48.172;17.070;2023-05-10T05:03:22;16.35;;;9.90;;
14876;SDS011;69691;48.172;17.070;2023-05-10T05:05:48;12.15;;;9.52;;
14876;SDS011;69691;48.172;17.070;2023-05-10T05:08:14;11.95;;;10.20;;
14876;SDS011;69691;48.172;17.070;2023-05-10T05:10:39;13.45;;;9.40;;
14876;SDS011;69691;48.172;17.070;2023-05-10T05:13:05;13.70;;;9.57;;
14876;SDS011;69691;48.172;17.070;2023-05-10T05:15:31;12.77;;;10.10;;
14876;SDS011;69691;48.172;17.070;2023-05-10T05:17:57;13.50;;;9.30;;
14876;SDS011;69691;48.172;17.070;2023-05-10T05:20:23;12.35;;;9.65;;
14876;SDS011;69691;48.172;17.070;2023-05-10T05:22:49;13.77;;;9.80;;
14876;SDS011;69691;48.172;17.070;2023-05-10T05:25:15;15.30;;;9.85;;
14876;SDS011;69691;48.172;17.070;2023-05-10T05:27:41;12.38;;;9.25;;
14876;SDS011;69691;48.172;17.070;2023-05-10T05:30:07;12.55;;;9.45;;
14876;SDS011;69691;48.172;17.070;2023-05-10T05:32:33;12.55;;;8.98;;
14876;SDS011;69691;48.172;17.070;2023-05-10T05:34:59;19.08;;;9.80;;
14876;SDS011;69691;48.172;17.070;2023-05-10T05:37:25;15.52;;;9.13;;
14876;SDS011;69691;48.172;17.070;2023-05-10T05:39:51;15.50;;;9.73;;
14876;SDS011;69691;48.172;17.070;2023-05-10T05:42:35;11.15;;;9.95;;
14876;SDS011;69691;48.172;17.070;2023-05-10T05:45:27;15.02;;;9.27;;
14876;SDS011;69691;48.172;17.070;2023-05-10T05:47:53;14.63;;;9.18;;
14876;SDS011;69691;48.172;17.070;2023-05-10T05:50:19;12.98;;;8.68;;
14876;SDS011;69691;48.172;17.070;2023-05-10T05:52:45;9.75;;;8.57;;
14876;SDS011;69691;48.172;17.070;2023-05-10T05:55:10;13.10;;;9.00;;
14876;SDS011;69691;48.172;17.070;2023-05-10T05:57:36;11.93;;;8.30;;
14876;SDS011;69691;48.172;17.070;2023-05-10T06:00:02;15.60;;;8.52;;
14876;SDS011;69691;48.172;17.070;2023-05-10T06:02:40;10.43;;;8.10;;
14876;SDS011;69691;48.172;17.070;2023-05-10T06:05:06;12.63;;;7.95;;
14876;SDS011;69691;48.172;17.070;2023-05-10T06:07:32;9.48;;;7.40;;
14876;SDS011;69691;48.172;17.070;2023-05-10T06:09:58;10.10;;;7.22;;
14876;SDS011;69691;48.172;17.070;2023-05-10T06:12:24;8.80;;;7.70;;
14876;SDS011;69691;48.172;17.070;2023-05-10T06:14:50;12.57;;;7.10;;
14876;SDS011;69691;48.172;17.070;2023-05-10T06:17:16;13.90;;;7.82;;
14876;SDS011;69691;48.172;17.070;2023-05-10T06:19:42;9.85;;;8.15;;
14876;SDS011;69691;48.172;17.070;2023-05-10T06:22:07;11.52;;;7.95;;
14876;SDS011;69691;48.172;17.070;2023-05-10T06:24:33;9.48;;;8.02;;
14876;SDS011;69691;48.172;17.070;2023-05-10T06:26:59;12.30;;;6.90;;
14876;SDS011;69691;48.172;17.070;2023-05-10T06:29:25;10.95;;;7.65;;
14876;SDS011;69691;48.172;17.070;2023-05-10T06:31:51;10.07;;;7.43;;
14876;SDS011;69691;48.172;17.070;2023-05-10T06:34:21;12.52;;;6.82;;
14876;SDS011;69691;48.172;17.070;2023-05-10T06:36:52;8.57;;;6.78;;
14876;SDS011;69691;48.172;17.070;2023-05-10T06:39:18;7.47;;;6.30;;
14876;SDS011;69691;48.172;17.070;2023-05-10T06:41:44;8.93;;;6.63;;
14876;SDS011;69691;48.172;17.070;2023-05-10T06:44:10;10.23;;;6.53;;
14876;SDS011;69691;48.172;17.070;2023-05-10T06:46:36;11.45;;;6.97;;
14876;SDS011;69691;48.172;17.070;2023-05-10T06:49:02;8.25;;;6.72;;
14876;SDS011;69691;48.172;17.070;2023-05-10T06:51:28;10.65;;;7.38;;
14876;SDS011;69691;48.172;17.070;2023-05-10T07:02:31;9.10;;;6.55;;
14876;SDS011;69691;48.172;17.070;2023-05-10T07:04:57;10.13;;;6.47;;
14876;SDS011;69691;48.172;17.070;2023-05-10T07:07:23;9.48;;;7.07;;
14876;SDS011;69691;48.172;17.070;2023-05-10T07:09:49;8.00;;;6.47;;
14876;SDS011;69691;48.172;17.070;2023-05-10T07:12:16;11.02;;;5.88;;
14876;SDS011;69691;48.172;17.070;2023-05-10T07:14:42;7.47;;;5.60;;
14876;SDS011;69691;48.172;17.070;2023-05-10T07:17:08;8.82;;;6.97;;
14876;SDS011;69691;48.172;17.070;2023-05-10T07:19:35;10.02;;;6.45;;
14876;SDS011;69691;48.172;17.070;2023-05-10T07:22:01;6.15;;;5.55;;
14876;SDS011;69691;48.172;17.070;2023-05-10T07:24:27;7.03;;;6.13;;
14876;SDS011;69691;48.172;17.070;2023-05-10T07:26:53;8.40;;;5.68;;
14876;SDS011;69691;48.172;17.070;2023-05-10T07:29:18;11.77;;;6.00;;
14876;SDS011;69691;48.172;17.070;2023-05-10T07:31:44;14.63;;;6.47;;
14876;SDS011;69691;48.172;17.070;2023-05-10T07:34:10;6.43;;;5.70;;
14876;SDS011;69691;48.172;17.070;2023-05-10T07:36:36;8.55;;;5.80;;
14876;SDS011;69691;48.172;17.070;2023-05-10T07:39:02;8.82;;;5.20;;
14876;SDS011;69691;48.172;17.070;2023-05-10T07:41:28;12.13;;;6.20;;
14876;SDS011;69691;48.172;17.070;2023-05-10T07:43:54;6.93;;;5.57;;
14876;SDS011;69691;48.172;17.070;2023-05-10T07:46:19;8.25;;;5.50;;
14876;SDS011;69691;48.172;17.070;2023-05-10T07:48:45;8.73;;;5.50;;
14876;SDS011;69691;48.172;17.070;2023-05-10T07:51:11;5.28;;;4.50;;
14876;SDS011;69691;48.172;17.070;2023-05-10T07:53:37;4.65;;;4.25;;
14876;SDS011;69691;48.172;17.070;2023-05-10T07:56:23;5.05;;;4.22;;
14876;SDS011;69691;48.172;17.070;2023-05-10T07:58:53;6.63;;;4.93;;
14876;SDS011;69691;48.172;17.070;2023-05-10T08:01:20;6.80;;;4.90;;
14876;SDS011;69691;48.172;17.070;2023-05-10T08:03:46;8.60;;;4.75;;
14876;SDS011;69691;48.172;17.070;2023-05-10T08:06:12;6.97;;;4.60;;
14876;SDS011;69691;48.172;17.070;2023-05-10T08:08:40;5.40;;;4.90;;
14876;SDS011;69691;48.172;17.070;2023-05-10T08:11:07;8.82;;;5.82;;
14876;SDS011;69691;48.172;17.070;2023-05-10T08:13:33;8.35;;;4.93;;
14876;SDS011;69691;48.172;17.070;2023-05-10T08:15:59;5.28;;;4.60;;
14876;SDS011;69691;48.172;17.070;2023-05-10T08:18:25;9.65;;;5.15;;
14876;SDS011;69691;48.172;17.070;2023-05-10T08:20:51;7.45;;;4.60;;
14876;SDS011;69691;48.172;17.070;2023-05-10T08:23:17;5.20;;;4.72;;
14876;SDS011;69691;48.172;17.070;2023-05-10T08:25:43;7.50;;;5.07;;
14876;SDS011;69691;48.172;17.070;2023-05-10T08:28:09;6.72;;;5.50;;
14876;SDS011;69691;48.172;17.070;2023-05-10T08:30:35;5.68;;;5.18;;
14876;SDS011;69691;48.172;17.070;2023-05-10T08:33:00;7.00;;;5.20;;
14876;SDS011;69691;48.172;17.070;2023-05-10T08:35:26;11.05;;;5.22;;
14876;SDS011;69691;48.172;17.070;2023-05-10T08:37:52;6.43;;;5.82;;
14876;SDS011;69691;48.172;17.070;2023-05-10T08:40:19;7.78;;;5.97;;
14876;SDS011;69691;48.172;17.070;2023-05-10T08:42:50;9.25;;;5.90;;
14876;SDS011;69691;48.172;17.070;2023-05-10T08:45:22;6.45;;;5.00;;
14876;SDS011;69691;48.172;17.070;2023-05-10T08:47:49;7.22;;;5.25;;
14876;SDS011;69691;48.172;17.070;2023-05-10T08:50:18;8.80;;;5.40;;
14876;SDS011;69691;48.172;17.070;2023-05-10T08:52:47;5.47;;;4.97;;
14876;SDS011;69691;48.172;17.070;2023-05-10T08:55:16;11.10;;;5.10;;
14876;SDS011;69691;48.172;17.070;2023-05-10T08:57:43;10.20;;;5.38;;
14876;SDS011;69691;48.172;17.070;2023-05-10T09:00:09;8.38;;;5.35;;
14876;SDS011;69691;48.172;17.070;2023-05-10T09:02:38;5.47;;;4.95;;
14876;SDS011;69691;48.172;17.070;2023-05-10T09:05:05;8.10;;;5.65;;
14876;SDS011;69691;48.172;17.070;2023-05-10T09:07:32;6.13;;;5.50;;
14876;SDS011;69691;48.172;17.070;2023-05-10T09:09:58;6.20;;;5.60;;
14876;SDS011;69691;48.172;17.070;2023-05-10T09:12:24;8.77;;;6.30;;
14876;SDS011;69691;48.172;17.070;2023-05-10T09:14:50;14.63;;;5.70;;
14876;SDS011;69691;48.172;17.070;2023-05-10T09:17:18;9.82;;;5.22;;
14876;SDS011;69691;48.172;17.070;2023-05-10T09:19:44;7.28;;;5.18;;
14876;SDS011;69691;48.172;17.070;2023-05-10T09:22:10;5.97;;;5.07;;
14876;SDS011;69691;48.172;17.070;2023-05-10T09:24:36;5.45;;;4.95;;
14876;SDS011;69691;48.172;17.070;2023-05-10T09:27:07;9.45;;;5.85;;
14876;SDS011;69691;48.172;17.070;2023-05-10T09:29:39;10.57;;;5.22;;
14876;SDS011;69691;48.172;17.070;2023-05-10T09:32:07;9.13;;;4.93;;
14876;SDS011;69691;48.172;17.070;2023-05-10T09:34:33;8.55;;;5.25;;
14876;SDS011;69691;48.172;17.070;2023-05-10T09:37:05;9.45;;;5.47;;
14876;SDS011;69691;48.172;17.070;2023-05-10T09:39:31;6.70;;;5.03;;
14876;SDS011;69691;48.172;17.070;2023-05-10T09:42:05;9.55;;;5.20;;
14876;SDS011;69691;48.172;17.070;2023-05-10T09:44:33;5.60;;;5.10;;
14876;SDS011;69691;48.172;17.070;2023-05-10T09:47:02;5.90;;;5.32;;
14876;SDS011;69691;48.172;17.070;2023-05-10T09:49:29;6.50;;;4.88;;
14876;SDS011;69691;48.172;17.070;2023-05-10T09:52:05;6.90;;;5.85;;
14876;SDS011;69691;48.172;17.070;2023-05-10T09:54:35;7.78;;;5.20;;
14876;SDS011;69691;48.172;17.070;2023-05-10T09:57:03;8.05;;;5.07;;
14876;SDS011;69691;48.172;17.070;2023-05-10T09:59:29;8.95;;;5.10;;
14876;SDS011;69691;48.172;17.070;2023-05-10T10:01:55;5.40;;;4.90;;
14876;SDS011;69691;48.172;17.070;2023-05-10T10:04:23;5.20;;;4.80;;
14876;SDS011;69691;48.172;17.070;2023-05-10T10:07:02;8.00;;;4.18;;
14876;SDS011;69691;48.172;17.070;2023-05-10T10:09:30;14.20;;;4.78;;
14876;SDS011;69691;48.172;17.070;2023-05-10T10:11:57;10.13;;;4.30;;
14876;SDS011;69691;48.172;17.070;2023-05-10T10:14:23;4.78;;;4.38;;
14876;SDS011;69691;48.172;17.070;2023-05-10T10:16:49;9.73;;;4.45;;
14876;SDS011;69691;48.172;17.070;2023-05-10T10:19:20;7.28;;;4.68;;
14876;SDS011;69691;48.172;17.070;2023-05-10T10:21:49;11.10;;;4.13;;
14876;SDS011;69691;48.172;17.070;2023-05-10T10:24:16;9.10;;;4.07;;
14876;SDS011;69691;48.172;17.070;2023-05-10T10:26:42;6.07;;;4.15;;
14876;SDS011;69691;48.172;17.070;2023-05-10T10:29:23;6.38;;;4.70;;
14876;SDS011;69691;48.172;17.070;2023-05-10T10:32:20;7.45;;;4.45;;
14876;SDS011;69691;48.172;17.070;2023-05-10T10:34:55;4.28;;;3.88;;
14876;SDS011;69691;48.172;17.070;2023-05-10T10:37:22;6.97;;;4.30;;
14876;SDS011;69691;48.172;17.070;2023-05-10T10:39:48;5.40;;;4.60;;
14876;SDS011;69691;48.172;17.070;2023-05-10T10:42:31;5.20;;;4.70;;
14876;SDS011;69691;48.172;17.070;2023-05-10T10:45:11;7.72;;;5.72;;
14876;SDS011;69691;48.172;17.070;2023-05-10T10:47:38;7.30;;;4.65;;
14876;SDS011;69691;48.172;17.070;2023-05-10T10:50:05;4.68;;;4.28;;
14876;SDS011;69691;48.172;17.070;2023-05-10T10:52:41;10.05;;;4.40;;
14876;SDS011;69691;48.172;17.070;2023-05-10T10:55:12;8.65;;;4.50;;
14876;SDS011;69691;48.172;17.070;2023-05-10T10:57:49;7.68;;;4.32;;
14876;SDS011;69691;48.172;17.070;2023-05-10T11:00:29;12.10;;;4.60;;
14876;SDS011;69691;48.172;17.070;2023-05-10T11:03:06;11.43;;;4.47;;
14876;SDS011;69691;48.172;17.070;2023-05-10T11:05:47;12.88;;;4.70;;
14876;SDS011;69691;48.172;17.070;2023-05-10T11:08:18;4.53;;;4.10;;
14876;SDS011;69691;48.172;17.070;2023-05-10T11:13:27;4.82;;;4.15;;
14876;SDS011;69691;48.172;17.070;2023-05-10T11:15:58;12.60;;;4.70;;
14876;SDS011;69691;48.172;17.070;2023-05-10T11:21:33;7.55;;;3.92;;
14876;SDS011;69691;48.172;17.070;2023-05-10T11:24:00;8.45;;;4.13;;
14876;SDS011;69691;48.172;17.070;2023-05-10T11:26:31;5.50;;;4.20;;
14876;SDS011;69691;48.172;17.070;2023-05-10T11:29:00;6.57;;;4.18;;
14876;SDS011;69691;48.172;17.070;2023-05-10T11:31:27;5.82;;;4.53;;
14876;SDS011;69691;48.172;17.070;2023-05-10T11:33:54;7.63;;;4.30;;
14876;SDS011;69691;48.172;17.070;2023-05-10T11:36:33;7.93;;;4.95;;
14876;SDS011;69691;48.172;17.070;2023-05-10T11:39:01;6.30;;;4.78;;
14876;SDS011;69691;48.172;17.070;2023-05-10T11:41:28;12.55;;;4.22;;
14876;SDS011;69691;48.172;17.070;2023-05-10T11:43:56;5.68;;;4.43;;
14876;SDS011;69691;48.172;17.070;2023-05-10T11:46:24;9.20;;;4.45;;
14876;SDS011;69691;48.172;17.070;2023-05-10T11:48:55;4.80;;;4.40;;
14876;SDS011;69691;48.172;17.070;2023-05-10T11:51:26;7.32;;;4.50;;
14876;SDS011;69691;48.172;17.070;2023-05-10T11:53:53;10.27;;;3.92;;
14876;SDS011;69691;48.172;17.070;2023-05-10T11:56:20;3.92;;;3.50;;
14876;SDS011;69691;48.172;17.070;2023-05-10T11:58:52;6.50;;;4.30;;
14876;SDS011;69691;48.172;17.070;2023-05-10T12:01:23;4.43;;;4.03;;
14876;SDS011;69691;48.172;17.070;2023-05-10T12:03:51;4.68;;;4.18;;
14876;SDS011;69691;48.172;17.070;2023-05-10T12:06:19;4.25;;;3.95;;
14876;SDS011;69691;48.172;17.070;2023-05-10T12:08:46;4.60;;;3.65;;
14876;SDS011;69691;48.172;17.070;2023-05-10T12:11:17;4.03;;;3.70;;
14876;SDS011;69691;48.172;17.070;2023-05-10T12:13:43;4.70;;;3.83;;
14876;SDS011;69691;48.172;17.070;2023-05-10T12:16:13;7.93;;;4.03;;
14876;SDS011;69691;48.172;17.070;2023-05-10T12:18:41;6.97;;;4.13;;
14876;SDS011;69691;48.172;17.070;2023-05-10T12:21:09;6.32;;;3.42;;
14876;SDS011;69691;48.172;17.070;2023-05-10T12:23:39;7.45;;;4.25;;
14876;SDS011;69691;48.172;17.070;2023-05-10T12:26:05;7.20;;;3.72;;
14876;SDS011;69691;48.172;17.070;2023-05-10T12:28:32;7.43;;;3.95;;
14876;SDS011;69691;48.172;17.070;2023-05-10T12:31:01;7.90;;;3.58;;
14876;SDS011;69691;48.172;17.070;2023-05-10T12:33:35;5.18;;;4.05;;
14876;SDS011;69691;48.172;17.070;2023-05-10T12:36:04;5.13;;;3.40;;
14876;SDS011;69691;48.172;17.070;2023-05-10T12:38:35;5.45;;;3.38;;
14876;SDS011;69691;48.172;17.070;2023-05-10T12:41:16;6.47;;;3.60;;
14876;SDS011;69691;48.172;17.070;2023-05-10T12:43:43;5.85;;;3.45;;
14876;SDS011;69691;48.172;17.070;2023-05-10T12:46:11;6.13;;;3.45;;
14876;SDS011;69691;48.172;17.070;2023-05-10T12:48:40;4.40;;;3.78;;
14876;SDS011;69691;48.172;17.070;2023-05-10T12:51:15;7.50;;;3.75;;
14876;SDS011;69691;48.172;17.070;2023-05-10T12:53:44;4.78;;;3.60;;
14876;SDS011;69691;48.172;17.070;2023-05-10T12:56:13;5.00;;;3.40;;
14876;SDS011;69691;48.172;17.070;2023-05-10T12:58:38;4.65;;;3.55;;
14876;SDS011;69691;48.172;17.070;2023-05-10T13:01:04;5.53;;;3.40;;
14876;SDS011;69691;48.172;17.070;2023-05-10T13:03:31;5.93;;;3.72;;
14876;SDS011;69691;48.172;17.070;2023-05-10T13:05:57;3.58;;;3.28;;
14876;SDS011;69691;48.172;17.070;2023-05-10T13:08:23;18.20;;;5.60;;
14876;SDS011;69691;48.172;17.070;2023-05-10T13:10:49;10.55;;;4.47;;
14876;SDS011;69691;48.172;17.070;2023-05-10T13:13:15;10.20;;;4.13;;
14876;SDS011;69691;48.172;17.070;2023-05-10T13:15:41;8.32;;;3.72;;
14876;SDS011;69691;48.172;17.070;2023-05-10T13:18:06;4.10;;;3.53;;
14876;SDS011;69691;48.172;17.070;2023-05-10T13:20:33;4.90;;;3.67;;
14876;SDS011;69691;48.172;17.070;2023-05-10T13:22:59;13.77;;;3.72;;
14876;SDS011;69691;48.172;17.070;2023-05-10T13:25:25;8.07;;;3.80;;
14876;SDS011;69691;48.172;17.070;2023-05-10T13:27:51;14.90;;;3.42;;
14876;SDS011;69691;48.172;17.070;2023-05-10T13:30:16;3.78;;;3.47;;
14876;SDS011;69691;48.172;17.070;2023-05-10T13:32:42;8.70;;;3.75;;
14876;SDS011;69691;48.172;17.070;2023-05-10T13:35:08;7.82;;;4.05;;
14876;SDS011;69691;48.172;17.070;2023-05-10T13:37:34;6.82;;;3.45;;
14876;SDS011;69691;48.172;17.070;2023-05-10T13:40:02;4.22;;;3.70;;
14876;SDS011;69691;48.172;17.070;2023-05-10T13:42:29;9.45;;;3.50;;
14876;SDS011;69691;48.172;17.070;2023-05-10T13:44:56;9.25;;;3.88;;
14876;SDS011;69691;48.172;17.070;2023-05-10T13:47:22;4.40;;;4.00;;
14876;SDS011;69691;48.172;17.070;2023-05-10T13:49:48;8.43;;;3.35;;
14876;SDS011;69691;48.172;17.070;2023-05-10T13:52:14;4.57;;;3.63;;
14876;SDS011;69691;48.172;17.070;2023-05-10T13:54:40;8.60;;;3.65;;
14876;SDS011;69691;48.172;17.070;2023-05-10T13:57:06;6.05;;;3.67;;
14876;SDS011;69691;48.172;17.070;2023-05-10T13:59:32;10.90;;;3.75;;
14876;SDS011;69691;48.172;17.070;2023-05-10T14:01:58;7.38;;;3.80;;
14876;SDS011;69691;48.172;17.070;2023-05-10T14:04:24;10.02;;;3.67;;
14876;SDS011;69691;48.172;17.070;2023-05-10T14:06:50;4.15;;;3.65;;
14876;SDS011;69691;48.172;17.070;2023-05-10T14:09:17;9.13;;;3.97;;
14876;SDS011;69691;48.172;17.070;2023-05-10T14:11:43;6.13;;;4.25;;
14876;SDS011;69691;48.172;17.070;2023-05-10T14:14:10;12.52;;;4.28;;
14876;SDS011;69691;48.172;17.070;2023-05-10T14:16:37;4.47;;;4.07;;
14876;SDS011;69691;48.172;17.070;2023-05-10T14:19:08;7.85;;;3.80;;
14876;SDS011;69691;48.172;17.070;2023-05-10T14:21:33;3.92;;;3.63;;
14876;SDS011;69691;48.172;17.070;2023-05-10T14:23:59;6.22;;;3.75;;
14876;SDS011;69691;48.172;17.070;2023-05-10T14:26:25;9.38;;;4.40;;
14876;SDS011;69691;48.172;17.070;2023-05-10T14:28:52;12.27;;;3.85;;
14876;SDS011;69691;48.172;17.070;2023-05-10T14:31:18;11.40;;;3.60;;
14876;SDS011;69691;48.172;17.070;2023-05-10T14:33:49;3.70;;;3.40;;
14876;SDS011;69691;48.172;17.070;2023-05-10T14:36:15;4.15;;;3.80;;
14876;SDS011;69691;48.172;17.070;2023-05-10T14:38:41;8.25;;;3.85;;
14876;SDS011;69691;48.172;17.070;2023-05-10T14:41:07;8.25;;;3.78;;
14876;SDS011;69691;48.172;17.070;2023-05-10T14:43:33;7.45;;;3.50;;
14876;SDS011;69691;48.172;17.070;2023-05-10T14:45:58;8.40;;;4.47;;
14876;SDS011;69691;48.172;17.070;2023-05-10T14:48:24;5.30;;;3.67;;
14876;SDS011;69691;48.172;17.070;2023-05-10T14:50:50;4.00;;;3.60;;
14876;SDS011;69691;48.172;17.070;2023-05-10T14:53:17;4.05;;;3.72;;
14876;SDS011;69691;48.172;17.070;2023-05-10T14:55:43;3.60;;;3.30;;
14876;SDS011;69691;48.172;17.070;2023-05-10T14:58:09;8.25;;;3.20;;
14876;SDS011;69691;48.172;17.070;2023-05-10T15:00:35;8.18;;;3.70;;